메인 페이지
METAR-TAF:

METAR-TAF

공항 :

아비장, 코트디부아르

위도: 05-15N, 경도: 003-56W, 고도: 7m

현재 날씨관측

예보는 39분 전, 09:00시(UTC)에 발표되었습니다.
5kt서남서풍과 북서풍을 오가는
온도 27°C
습도 84%
기압 1016 hPa
시정: 8000m
고도 1100ft 상공 구름 조금

METAR: DIAP 200900Z 27005KT 240V310 8000 FEW011 27/24 Q1016 NOSIG

시각: 09:39 (09:39 UTC)

예보

예보는 4 시간 39분 전, 05:00시(UTC)에 발표되었습니다.
예보 대상 시간: 20일 06시부터 21일 12시까지 (UTC)
여러 방향의 바람 2kt
시정: 8000m
고도 1200ft 상공 구름 보통
확률 30% :
일시적
20일 06시부터 20일 12시까지 (UTC)
시정: 4000m
고도 1200ft 상공 구름 많음
고도 2000ft 상공 구름 조금, 적란운.
뇌우, 비
전환 중
20일 15시부터 20일 18시까지 (UTC)
시정: 3000m
고도 1200ft 상공 구름 많음
고도 2000ft 상공 구름 조금, 적란운.
뇌우, 비

TAF: DIAP 200500Z 2006/2112 VRB02KT 8000 SCT012 PROB30 TEMPO 2006/2012 4000 TSRA BKN012 FEW020CB BECMG 2015/2018 3000 TSRA BKN012 FEW020CB

4,000개 이상의 공항 관측 자료 및 예보 (METAR 및 TAF 보고).

지도상에서 검색 가능한 기상관측소가 노란 점과 빨간 점으로 표시되어 있습니다.

기상관측소 명을 보려면 표시 위로 마우스를 이동하세요.

날씨 관측과 예보를 보려면 클릭하세요.

지도 변경 : 확대하려면 엑스 표시가 있는 녹색 버튼, 축소하려면 빼기 표시가 있는 녹색 버튼, 다음 페이지의 지도를 보려면 녹색 화살표를 클릭하세요.


METAR-TAF: